createdAt,value
2022-10-31T00:00:41.850Z,1014.40
2022-10-31T00:01:41.795Z,1014.39
2022-10-31T00:02:41.853Z,1014.45
2022-10-31T00:03:41.790Z,1014.49
2022-10-31T00:04:41.792Z,1014.53
2022-10-31T00:05:41.785Z,1014.48
2022-10-31T00:06:41.786Z,1014.52
2022-10-31T00:07:41.783Z,1014.50
2022-10-31T00:08:41.790Z,1014.51
2022-10-31T00:09:41.796Z,1014.49
2022-10-31T00:10:41.783Z,1014.50
2022-10-31T00:11:41.789Z,1014.48
2022-10-31T00:12:41.789Z,1014.45
2022-10-31T00:13:41.796Z,1014.47
2022-10-31T00:14:41.793Z,1014.44
2022-10-31T00:15:41.808Z,1014.41
2022-10-31T00:16:41.797Z,1014.46
2022-10-31T00:17:41.792Z,1014.46
2022-10-31T00:18:41.784Z,1014.50
2022-10-31T00:19:41.787Z,1014.47
2022-10-31T00:20:41.784Z,1014.49
2022-10-31T00:21:41.780Z,1014.42
2022-10-31T00:22:41.787Z,1014.42
2022-10-31T00:23:41.786Z,1014.43
2022-10-31T00:24:41.785Z,1014.44
2022-10-31T00:25:41.783Z,1014.46
2022-10-31T00:26:41.787Z,1014.48
2022-10-31T00:27:41.790Z,1014.46
2022-10-31T00:28:41.782Z,1014.49
2022-10-31T00:29:41.782Z,1014.48
2022-10-31T00:30:41.775Z,1014.49
2022-10-31T00:31:41.810Z,1014.48
2022-10-31T00:32:41.781Z,1014.52
2022-10-31T00:33:41.778Z,1014.53
2022-10-31T00:34:41.783Z,1014.51
2022-10-31T00:35:41.777Z,1014.55
2022-10-31T00:36:41.779Z,1014.53
2022-10-31T00:37:41.776Z,1014.54
2022-10-31T00:38:41.776Z,1014.56
2022-10-31T00:39:41.779Z,1014.61
2022-10-31T00:40:41.778Z,1014.60
2022-10-31T00:41:41.781Z,1014.63
2022-10-31T00:42:41.773Z,1014.67
2022-10-31T00:43:41.779Z,1014.64
2022-10-31T00:44:41.772Z,1014.61
2022-10-31T00:45:41.775Z,1014.63
2022-10-31T00:46:41.774Z,1014.60
2022-10-31T00:47:41.798Z,1014.62
2022-10-31T00:48:41.774Z,1014.65
2022-10-31T00:49:41.769Z,1014.63
2022-10-31T00:50:41.771Z,1014.63
2022-10-31T00:51:41.779Z,1014.68
2022-10-31T00:52:41.777Z,1014.67
2022-10-31T00:53:41.769Z,1014.67
2022-10-31T00:54:41.775Z,1014.69
2022-10-31T00:55:41.771Z,1014.73
2022-10-31T00:56:41.777Z,1014.75
2022-10-31T00:57:41.771Z,1014.79
2022-10-31T00:58:41.771Z,1014.72
2022-10-31T00:59:41.769Z,1014.75
2022-10-31T01:00:41.768Z,1014.71
2022-10-31T01:01:42.017Z,1014.72
2022-10-31T01:02:41.886Z,1014.72
2022-10-31T01:03:41.787Z,1014.74
2022-10-31T01:04:41.765Z,1014.75
2022-10-31T01:05:41.764Z,1014.73
2022-10-31T01:06:41.766Z,1014.75
2022-10-31T01:07:41.766Z,1014.72
2022-10-31T01:08:41.765Z,1014.69
2022-10-31T01:09:41.772Z,1014.76
2022-10-31T01:10:41.766Z,1014.72
2022-10-31T01:11:41.763Z,1014.72
2022-10-31T01:12:41.765Z,1014.73
2022-10-31T01:13:41.763Z,1014.73
2022-10-31T01:14:41.758Z,1014.72
2022-10-31T01:15:41.763Z,1014.72
2022-10-31T01:16:41.757Z,1014.72
2022-10-31T01:17:41.758Z,1014.71
2022-10-31T01:18:41.762Z,1014.70
2022-10-31T01:19:41.795Z,1014.69
2022-10-31T01:20:41.758Z,1014.73
2022-10-31T01:21:41.762Z,1014.74
2022-10-31T01:22:41.758Z,1014.77
2022-10-31T01:23:41.761Z,1014.85
2022-10-31T01:24:41.755Z,1014.84
2022-10-31T01:25:41.758Z,1014.79
2022-10-31T01:26:41.748Z,1014.83
2022-10-31T01:27:41.760Z,1014.80
2022-10-31T01:28:41.769Z,1014.79
2022-10-31T01:29:41.751Z,1014.82
2022-10-31T01:30:41.755Z,1014.82
2022-10-31T01:31:41.748Z,1014.83
2022-10-31T01:32:41.762Z,1014.83
2022-10-31T01:33:41.754Z,1014.82
2022-10-31T01:34:41.750Z,1014.81
2022-10-31T01:35:41.777Z,1014.78
2022-10-31T01:36:41.749Z,1014.79
2022-10-31T01:37:41.748Z,1014.78
2022-10-31T01:38:41.754Z,1014.76
2022-10-31T01:39:41.752Z,1014.80
2022-10-31T01:40:41.748Z,1014.81
2022-10-31T01:41:41.746Z,1014.81
2022-10-31T01:42:41.754Z,1014.80
2022-10-31T01:43:41.749Z,1014.78
2022-10-31T01:44:41.751Z,1014.78
2022-10-31T01:45:41.747Z,1014.76
2022-10-31T01:46:41.752Z,1014.77
2022-10-31T01:47:41.744Z,1014.79
2022-10-31T01:48:43.323Z,1014.78
2022-10-31T01:49:41.744Z,1014.80
2022-10-31T01:50:41.739Z,1014.83
2022-10-31T01:51:41.766Z,1014.82
2022-10-31T01:52:41.746Z,1014.81
2022-10-31T01:53:41.741Z,1014.81
2022-10-31T01:54:41.740Z,1014.81
2022-10-31T01:55:41.738Z,1014.86
2022-10-31T01:56:41.739Z,1014.84
2022-10-31T01:57:41.739Z,1014.82
2022-10-31T01:58:41.741Z,1014.81
2022-10-31T01:59:41.739Z,1014.80
2022-10-31T02:00:42.004Z,1014.79
2022-10-31T02:01:42.003Z,1014.82
2022-10-31T02:02:41.952Z,1014.77
2022-10-31T02:03:41.738Z,1014.74
2022-10-31T02:04:41.738Z,1014.76
2022-10-31T02:05:41.733Z,1014.73
2022-10-31T02:06:41.737Z,1014.73
2022-10-31T02:07:41.758Z,1014.70
2022-10-31T02:08:41.734Z,1014.74
2022-10-31T02:09:41.734Z,1014.79
2022-10-31T02:10:41.734Z,1014.80
2022-10-31T02:11:41.730Z,1014.86
2022-10-31T02:12:41.730Z,1014.89
2022-10-31T02:13:41.732Z,1014.89
2022-10-31T02:14:41.731Z,1014.90
2022-10-31T02:15:41.728Z,1014.87
2022-10-31T02:16:41.730Z,1014.87
2022-10-31T02:17:41.727Z,1014.88
2022-10-31T02:18:41.729Z,1014.91
2022-10-31T02:19:41.731Z,1014.90
2022-10-31T02:20:41.727Z,1014.87
2022-10-31T02:21:41.725Z,1014.87
2022-10-31T02:22:41.722Z,1014.91
2022-10-31T02:23:44.005Z,1014.90
2022-10-31T02:24:41.725Z,1014.91
2022-10-31T02:25:41.725Z,1014.92
2022-10-31T02:26:41.727Z,1014.95
2022-10-31T02:27:41.720Z,1014.93
2022-10-31T02:28:41.726Z,1014.92
2022-10-31T02:29:41.721Z,1014.96
2022-10-31T02:30:41.720Z,1014.94
2022-10-31T02:31:41.724Z,1014.93
2022-10-31T02:32:41.726Z,1014.95
2022-10-31T02:33:41.718Z,1014.95
2022-10-31T02:34:41.722Z,1014.92
2022-10-31T02:35:41.720Z,1014.88
2022-10-31T02:36:41.712Z,1014.85
2022-10-31T02:37:41.713Z,1014.88
2022-10-31T02:38:41.712Z,1014.87
2022-10-31T02:39:41.736Z,1014.88
2022-10-31T02:40:41.718Z,1014.91
2022-10-31T02:41:41.715Z,1014.85
2022-10-31T02:42:41.710Z,1014.83
2022-10-31T02:43:41.716Z,1014.82
2022-10-31T02:44:41.729Z,1014.83
2022-10-31T02:45:41.711Z,1014.85
2022-10-31T02:46:41.709Z,1014.86
2022-10-31T02:47:41.709Z,1014.82
2022-10-31T02:48:41.714Z,1014.82
2022-10-31T02:49:41.710Z,1014.85
2022-10-31T02:50:41.704Z,1014.86
2022-10-31T02:51:41.706Z,1014.86
2022-10-31T02:52:41.715Z,1014.89
2022-10-31T02:53:41.708Z,1014.86
2022-10-31T02:54:41.703Z,1014.91
2022-10-31T02:55:41.727Z,1014.91
2022-10-31T02:56:41.702Z,1014.90
2022-10-31T02:57:41.701Z,1014.88
2022-10-31T02:58:41.703Z,1014.93
2022-10-31T02:59:41.706Z,1014.89
2022-10-31T03:00:41.701Z,1014.89
2022-10-31T03:01:41.903Z,1014.90
2022-10-31T03:02:41.884Z,1014.87
2022-10-31T03:03:41.698Z,1014.91
2022-10-31T03:04:41.701Z,1014.90
2022-10-31T03:05:41.695Z,1014.90
2022-10-31T03:06:41.700Z,1014.91
2022-10-31T03:07:41.695Z,1014.87
2022-10-31T03:08:41.696Z,1014.92
2022-10-31T03:09:41.690Z,1014.90
2022-10-31T03:10:41.699Z,1014.95
2022-10-31T03:11:41.716Z,1014.96
2022-10-31T03:12:44.558Z,1014.98
2022-10-31T03:13:41.692Z,1014.96
2022-10-31T03:14:41.692Z,1014.96
2022-10-31T03:15:41.689Z,1015.00
2022-10-31T03:16:41.691Z,1015.02
2022-10-31T03:17:41.692Z,1015.01
2022-10-31T03:18:41.687Z,1015.04
2022-10-31T03:19:41.691Z,1015.12
2022-10-31T03:20:41.694Z,1015.10
2022-10-31T03:21:41.696Z,1015.10
2022-10-31T03:22:41.690Z,1015.11
2022-10-31T03:23:41.677Z,1015.16
2022-10-31T03:24:41.684Z,1015.12
2022-10-31T03:25:41.681Z,1015.17
2022-10-31T03:26:41.687Z,1015.12
2022-10-31T03:27:41.702Z,1015.17
2022-10-31T03:28:41.682Z,1015.16
2022-10-31T03:29:41.679Z,1015.12
2022-10-31T03:30:41.687Z,1015.12
2022-10-31T03:31:41.683Z,1015.13
2022-10-31T03:32:41.678Z,1015.14
2022-10-31T03:33:41.682Z,1015.17
2022-10-31T03:34:41.684Z,1015.17
2022-10-31T03:35:41.675Z,1015.15
2022-10-31T03:36:41.680Z,1015.16
2022-10-31T03:37:41.671Z,1015.15
2022-10-31T03:38:41.703Z,1015.18
2022-10-31T03:39:41.675Z,1015.19
2022-10-31T03:40:41.676Z,1015.18
2022-10-31T03:41:41.671Z,1015.17
2022-10-31T03:42:41.672Z,1015.20
2022-10-31T03:43:41.698Z,1015.21
2022-10-31T03:44:41.675Z,1015.25
2022-10-31T03:45:41.676Z,1015.25
2022-10-31T03:46:41.669Z,1015.33
2022-10-31T03:47:41.673Z,1015.36
2022-10-31T03:48:41.679Z,1015.37
2022-10-31T03:49:41.670Z,1015.38
2022-10-31T03:50:41.665Z,1015.41
2022-10-31T03:51:41.668Z,1015.36
2022-10-31T03:52:41.666Z,1015.36
2022-10-31T03:53:41.660Z,1015.38
2022-10-31T03:54:41.666Z,1015.39
2022-10-31T03:55:41.663Z,1015.41
2022-10-31T03:56:41.662Z,1015.45
2022-10-31T03:57:41.659Z,1015.49
2022-10-31T03:58:41.660Z,1015.48
2022-10-31T03:59:41.675Z,1015.53
2022-10-31T04:00:41.658Z,1015.51
2022-10-31T04:01:41.795Z,1015.46
2022-10-31T04:02:41.800Z,1015.51
2022-10-31T04:03:41.653Z,1015.49
2022-10-31T04:04:41.655Z,1015.48
2022-10-31T04:05:41.657Z,1015.51
2022-10-31T04:06:41.659Z,1015.49
2022-10-31T04:07:41.681Z,1015.50
2022-10-31T04:08:41.652Z,1015.51
2022-10-31T04:09:41.651Z,1015.50
2022-10-31T04:10:41.649Z,1015.51
2022-10-31T04:11:41.646Z,1015.48
2022-10-31T04:12:41.689Z,1015.50
2022-10-31T04:13:41.651Z,1015.51
2022-10-31T04:14:41.655Z,1015.47
2022-10-31T04:15:41.670Z,1015.47
2022-10-31T04:16:41.643Z,1015.49
2022-10-31T04:17:41.639Z,1015.49
2022-10-31T04:18:41.649Z,1015.51
2022-10-31T04:19:41.647Z,1015.54
2022-10-31T04:20:41.641Z,1015.56
2022-10-31T04:21:41.639Z,1015.55
2022-10-31T04:22:41.643Z,1015.56
2022-10-31T04:23:41.641Z,1015.58
2022-10-31T04:24:41.642Z,1015.58
2022-10-31T04:25:41.644Z,1015.56
2022-10-31T04:26:41.638Z,1015.56
2022-10-31T04:27:41.633Z,1015.58
2022-10-31T04:28:41.639Z,1015.57
2022-10-31T04:29:44.369Z,1015.55
2022-10-31T04:30:41.631Z,1015.56
2022-10-31T04:31:41.649Z,1015.56
2022-10-31T04:32:41.633Z,1015.58
2022-10-31T04:33:41.627Z,1015.57
2022-10-31T04:34:41.627Z,1015.60
2022-10-31T04:35:41.625Z,1015.54
2022-10-31T04:36:41.626Z,1015.56
2022-10-31T04:37:41.622Z,1015.59
2022-10-31T04:38:41.624Z,1015.60
2022-10-31T04:39:41.626Z,1015.58
2022-10-31T04:40:41.651Z,1015.58
2022-10-31T04:41:41.630Z,1015.58
2022-10-31T04:42:41.622Z,1015.59
2022-10-31T04:43:41.620Z,1015.60
2022-10-31T04:44:41.624Z,1015.59
2022-10-31T04:45:41.622Z,1015.64
2022-10-31T04:46:41.621Z,1015.64
2022-10-31T04:47:41.641Z,1015.63
2022-10-31T04:48:41.620Z,1015.66
2022-10-31T04:49:41.617Z,1015.66
2022-10-31T04:50:41.617Z,1015.62
2022-10-31T04:51:41.613Z,1015.63
2022-10-31T04:52:41.614Z,1015.64
2022-10-31T04:53:41.613Z,1015.68
2022-10-31T04:54:41.624Z,1015.57
2022-10-31T04:55:41.608Z,1015.63
2022-10-31T04:56:41.613Z,1015.63
2022-10-31T04:57:41.609Z,1015.62
2022-10-31T04:58:41.616Z,1015.61
2022-10-31T04:59:41.604Z,1015.64
2022-10-31T05:00:41.660Z,1015.63
2022-10-31T05:01:41.773Z,1015.68
2022-10-31T05:02:44.445Z,1015.62
2022-10-31T05:03:41.666Z,1015.70
2022-10-31T05:04:41.602Z,1015.66
2022-10-31T05:05:41.602Z,1015.67
2022-10-31T05:06:41.602Z,1015.62
2022-10-31T05:07:41.604Z,1015.67
2022-10-31T05:08:41.600Z,1015.66
2022-10-31T05:09:41.598Z,1015.67
2022-10-31T05:10:41.598Z,1015.71
2022-10-31T05:11:41.596Z,1015.72
2022-10-31T05:12:41.600Z,1015.69
2022-10-31T05:13:41.592Z,1015.72
2022-10-31T05:14:43.532Z,1015.70
2022-10-31T05:15:41.592Z,1015.74
2022-10-31T05:16:41.596Z,1015.74
2022-10-31T05:17:41.596Z,1015.69
2022-10-31T05:18:41.591Z,1015.66
2022-10-31T05:19:41.613Z,1015.72
2022-10-31T05:20:41.593Z,1015.68
2022-10-31T05:21:41.592Z,1015.68
2022-10-31T05:22:41.588Z,1015.70
2022-10-31T05:23:45.877Z,1015.70
2022-10-31T05:24:41.582Z,1015.69
2022-10-31T05:25:41.583Z,1015.69
2022-10-31T05:26:41.586Z,1015.76
2022-10-31T05:27:41.579Z,1015.77
2022-10-31T05:28:41.582Z,1015.73
2022-10-31T05:29:41.583Z,1015.75
2022-10-31T05:30:41.582Z,1015.76
2022-10-31T05:31:41.578Z,1015.79
2022-10-31T05:32:41.579Z,1015.77
2022-10-31T05:33:41.577Z,1015.80
2022-10-31T05:34:41.577Z,1015.81
2022-10-31T05:35:41.592Z,1015.79
2022-10-31T05:36:41.582Z,1015.85
2022-10-31T05:37:41.580Z,1015.86
2022-10-31T05:38:41.581Z,1015.88
2022-10-31T05:39:41.567Z,1015.86
2022-10-31T05:40:41.569Z,1015.87
2022-10-31T05:41:41.565Z,1015.86
2022-10-31T05:42:41.571Z,1015.90
2022-10-31T05:43:41.566Z,1015.90
2022-10-31T05:44:41.571Z,1015.88
2022-10-31T05:45:41.569Z,1015.89
2022-10-31T05:46:41.572Z,1015.92
2022-10-31T05:47:41.563Z,1015.88
2022-10-31T05:48:41.561Z,1015.92
2022-10-31T05:49:41.562Z,1015.90
2022-10-31T05:50:41.558Z,1015.90
2022-10-31T05:51:41.575Z,1015.89
2022-10-31T05:52:41.559Z,1015.86
2022-10-31T05:53:41.559Z,1015.83
2022-10-31T05:54:41.560Z,1015.87
2022-10-31T05:55:41.565Z,1015.90
2022-10-31T05:56:41.563Z,1015.91
2022-10-31T05:57:41.557Z,1015.90
2022-10-31T05:58:41.555Z,1015.91
2022-10-31T05:59:41.554Z,1015.94
2022-10-31T06:00:41.553Z,1015.96
2022-10-31T06:01:41.635Z,1015.90
2022-10-31T06:02:41.549Z,1015.97
2022-10-31T06:03:41.614Z,1015.98
2022-10-31T06:04:41.615Z,1016.02
2022-10-31T06:05:41.544Z,1015.98
2022-10-31T06:06:41.548Z,1015.99
2022-10-31T06:07:41.569Z,1015.97
2022-10-31T06:08:41.547Z,1015.99
2022-10-31T06:09:41.553Z,1016.00
2022-10-31T06:10:41.544Z,1015.99
2022-10-31T06:11:41.546Z,1015.97
2022-10-31T06:12:41.624Z,1015.99
2022-10-31T06:13:41.534Z,1016.00
2022-10-31T06:14:41.535Z,1015.99
2022-10-31T06:15:41.536Z,1016.04
2022-10-31T06:16:41.538Z,1016.06
2022-10-31T06:17:41.542Z,1016.07
2022-10-31T06:18:41.534Z,1016.09
2022-10-31T06:19:41.571Z,1016.09
2022-10-31T06:20:41.531Z,1016.09
2022-10-31T06:21:41.532Z,1016.13
2022-10-31T06:22:41.532Z,1016.11
2022-10-31T06:23:41.551Z,1016.12
2022-10-31T06:24:41.527Z,1016.13
2022-10-31T06:25:41.526Z,1016.14
2022-10-31T06:26:41.528Z,1016.12
2022-10-31T06:27:41.532Z,1016.18
2022-10-31T06:28:41.524Z,1016.20
2022-10-31T06:29:41.525Z,1016.18
2022-10-31T06:30:41.522Z,1016.21
2022-10-31T06:31:41.522Z,1016.19
2022-10-31T06:32:41.522Z,1016.23
2022-10-31T06:33:41.520Z,1016.22
2022-10-31T06:34:41.518Z,1016.21
2022-10-31T06:35:41.516Z,1016.26
2022-10-31T06:36:41.514Z,1016.24
2022-10-31T06:37:43.375Z,1016.26
2022-10-31T06:38:41.507Z,1016.29
2022-10-31T06:39:41.558Z,1016.28
2022-10-31T06:40:41.522Z,1016.27
2022-10-31T06:41:41.514Z,1016.29
2022-10-31T06:42:41.512Z,1016.31
2022-10-31T06:43:41.514Z,1016.32
2022-10-31T06:44:41.513Z,1016.36
2022-10-31T06:45:41.509Z,1016.37
2022-10-31T06:46:41.503Z,1016.39
2022-10-31T06:48:03.582Z,1016.37
2022-10-31T06:48:41.508Z,1016.37
2022-10-31T06:49:41.506Z,1016.37
2022-10-31T06:50:41.503Z,1016.43
2022-10-31T06:51:41.505Z,1016.42
2022-10-31T06:52:41.496Z,1016.41
2022-10-31T06:53:41.505Z,1016.42
2022-10-31T06:54:41.500Z,1016.42
2022-10-31T06:55:41.528Z,1016.45
2022-10-31T06:56:41.500Z,1016.46
2022-10-31T06:57:41.497Z,1016.46
2022-10-31T06:58:41.501Z,1016.51
2022-10-31T06:59:41.495Z,1016.54
2022-10-31T07:00:41.636Z,1016.54
2022-10-31T07:01:41.677Z,1016.56
2022-10-31T07:02:41.493Z,1016.54
2022-10-31T07:03:41.495Z,1016.54
2022-10-31T07:04:41.494Z,1016.59
2022-10-31T07:05:41.488Z,1016.59
2022-10-31T07:06:41.487Z,1016.57
2022-10-31T07:07:41.487Z,1016.57
2022-10-31T07:08:41.487Z,1016.56
2022-10-31T07:09:41.487Z,1016.65
2022-10-31T07:10:41.488Z,1016.64
2022-10-31T07:11:41.510Z,1016.63
2022-10-31T07:12:41.480Z,1016.65
2022-10-31T07:13:41.482Z,1016.62
2022-10-31T07:14:41.485Z,1016.61
2022-10-31T07:15:41.481Z,1016.62
2022-10-31T07:16:41.487Z,1016.61
2022-10-31T07:17:41.480Z,1016.60
2022-10-31T07:18:41.479Z,1016.60
2022-10-31T07:19:41.478Z,1016.56
2022-10-31T07:20:41.477Z,1016.58
2022-10-31T07:21:41.489Z,1016.58
2022-10-31T07:22:41.474Z,1016.63
2022-10-31T07:23:41.475Z,1016.63
2022-10-31T07:24:41.480Z,1016.68
2022-10-31T07:25:41.475Z,1016.73
2022-10-31T07:26:41.529Z,1016.81
2022-10-31T07:27:42.856Z,1016.79
2022-10-31T07:28:41.472Z,1016.78
2022-10-31T07:29:41.473Z,1016.75
2022-10-31T07:30:41.479Z,1016.73
2022-10-31T07:31:41.477Z,1016.74
2022-10-31T07:32:41.464Z,1016.73
2022-10-31T07:33:41.473Z,1016.72
2022-10-31T07:34:46.529Z,1016.76
2022-10-31T07:35:41.472Z,1016.80
2022-10-31T07:36:41.466Z,1016.78
2022-10-31T07:37:41.473Z,1016.75
2022-10-31T07:38:41.471Z,1016.85
2022-10-31T07:39:41.467Z,1016.83
2022-10-31T07:40:41.475Z,1016.80
2022-10-31T07:41:41.470Z,1016.84
2022-10-31T07:42:41.486Z,1016.82
2022-10-31T07:43:41.561Z,1016.87
2022-10-31T07:44:41.466Z,1016.89
2022-10-31T07:45:41.470Z,1016.91
2022-10-31T07:46:41.476Z,1017.00
2022-10-31T07:47:41.467Z,1017.00
2022-10-31T07:48:41.456Z,1017.05
2022-10-31T07:49:41.460Z,1017.10
2022-10-31T07:50:41.464Z,1017.11
2022-10-31T07:51:46.350Z,1017.08
2022-10-31T07:52:41.462Z,1017.11
2022-10-31T07:53:41.460Z,1017.04
2022-10-31T07:54:41.459Z,1017.03
2022-10-31T07:55:41.479Z,1017.08
2022-10-31T07:56:41.454Z,1017.05
2022-10-31T07:57:41.461Z,1017.10
2022-10-31T07:58:41.460Z,1017.12
2022-10-31T07:59:41.475Z,1017.12
2022-10-31T08:00:41.613Z,1017.12
2022-10-31T08:01:41.460Z,1017.13
2022-10-31T08:02:41.457Z,1017.13
2022-10-31T08:03:41.467Z,1017.13
2022-10-31T08:04:41.459Z,1017.17
2022-10-31T08:05:41.459Z,1017.16
2022-10-31T08:06:41.463Z,1017.18
2022-10-31T08:07:41.464Z,1017.18
2022-10-31T08:08:41.459Z,1017.21
2022-10-31T08:09:41.459Z,1017.20
2022-10-31T08:10:41.492Z,1017.18
2022-10-31T08:11:41.563Z,1017.21
2022-10-31T08:12:41.462Z,1017.19
2022-10-31T08:13:41.459Z,1017.18
2022-10-31T08:14:41.460Z,1017.20
2022-10-31T08:15:41.520Z,1017.17
2022-10-31T08:16:41.470Z,1017.18
2022-10-31T08:17:41.468Z,1017.24
2022-10-31T08:18:41.459Z,1017.13
2022-10-31T08:19:41.475Z,1017.17
2022-10-31T08:20:41.463Z,1017.15
2022-10-31T08:21:41.463Z,1017.19
2022-10-31T08:22:43.875Z,1017.15
2022-10-31T08:23:41.482Z,1017.21
2022-10-31T08:24:41.470Z,1017.22
2022-10-31T08:25:41.464Z,1017.22
2022-10-31T08:26:41.581Z,1017.19
2022-10-31T08:27:41.479Z,1017.23
2022-10-31T08:28:41.479Z,1017.23
2022-10-31T08:29:41.461Z,1017.23
2022-10-31T08:30:41.463Z,1017.24
2022-10-31T08:31:42.970Z,1017.23
2022-10-31T08:32:41.468Z,1017.24
2022-10-31T08:33:41.467Z,1017.23
2022-10-31T08:34:41.468Z,1017.25
2022-10-31T08:35:41.469Z,1017.29
2022-10-31T08:36:41.480Z,1017.27
2022-10-31T08:37:41.471Z,1017.28
2022-10-31T08:38:41.465Z,1017.33
2022-10-31T08:39:41.466Z,1017.28
2022-10-31T08:40:41.485Z,1017.28
2022-10-31T08:41:41.478Z,1017.28
2022-10-31T08:42:41.469Z,1017.28
2022-10-31T08:43:41.476Z,1017.25
2022-10-31T08:44:41.472Z,1017.33
2022-10-31T08:45:41.474Z,1017.34
2022-10-31T08:46:41.470Z,1017.28
2022-10-31T08:47:41.505Z,1017.34
2022-10-31T08:48:41.486Z,1017.34
2022-10-31T08:49:41.481Z,1017.37
2022-10-31T08:50:41.478Z,1017.33
2022-10-31T08:51:41.476Z,1017.30
2022-10-31T08:53:03.693Z,1017.37
2022-10-31T08:53:41.471Z,1017.32
2022-10-31T08:54:41.473Z,1017.32
2022-10-31T08:55:41.475Z,1017.36
2022-10-31T08:56:41.496Z,1017.35
2022-10-31T08:57:41.479Z,1017.34
2022-10-31T08:58:41.483Z,1017.36
2022-10-31T08:59:41.480Z,1017.39
2022-10-31T09:00:41.548Z,1017.36
2022-10-31T09:01:41.609Z,1017.32
2022-10-31T09:02:41.477Z,1017.31
2022-10-31T09:03:41.503Z,1017.36
2022-10-31T09:04:41.484Z,1017.33
2022-10-31T09:05:41.499Z,1017.35
2022-10-31T09:06:50.472Z,1017.30
2022-10-31T09:07:41.482Z,1017.38
2022-10-31T09:08:41.489Z,1017.34
2022-10-31T09:09:41.491Z,1017.37
2022-10-31T09:10:41.485Z,1017.37
2022-10-31T09:11:41.486Z,1017.35
2022-10-31T09:12:41.489Z,1017.33
2022-10-31T09:13:41.751Z,1017.35
2022-10-31T09:14:41.489Z,1017.37
2022-10-31T09:15:41.498Z,1017.41
2022-10-31T09:16:41.499Z,1017.41
2022-10-31T09:17:41.494Z,1017.46
2022-10-31T09:18:41.495Z,1017.45
2022-10-31T09:19:41.535Z,1017.50
2022-10-31T09:20:41.494Z,1017.47
2022-10-31T09:21:41.490Z,1017.51
2022-10-31T09:22:41.499Z,1017.49
2022-10-31T09:23:41.507Z,1017.49
2022-10-31T09:24:41.498Z,1017.47
2022-10-31T09:25:44.018Z,1017.55
2022-10-31T09:26:41.554Z,1017.56
2022-10-31T09:27:41.509Z,1017.59
2022-10-31T09:28:41.507Z,1017.59
2022-10-31T09:29:41.504Z,1017.59
2022-10-31T09:30:41.516Z,1017.61
2022-10-31T09:31:44.888Z,1017.66
2022-10-31T09:32:41.513Z,1017.59
2022-10-31T09:33:41.512Z,1017.62
2022-10-31T09:34:41.508Z,1017.59
2022-10-31T09:35:41.536Z,1017.59
2022-10-31T09:36:41.541Z,1017.56
2022-10-31T09:37:41.519Z,1017.60
2022-10-31T09:38:41.523Z,1017.58
2022-10-31T09:39:41.526Z,1017.60
2022-10-31T09:40:41.519Z,1017.60
2022-10-31T09:41:41.528Z,1017.70
2022-10-31T09:42:41.531Z,1017.64
2022-10-31T09:43:41.537Z,1017.65
2022-10-31T09:44:41.540Z,1017.74
2022-10-31T09:45:41.544Z,1017.77
2022-10-31T09:46:41.534Z,1017.95
2022-10-31T09:47:41.539Z,1017.99
2022-10-31T09:48:41.536Z,1017.82
2022-10-31T09:49:41.636Z,1018.11
2022-10-31T09:50:41.544Z,1018.10
2022-10-31T09:51:41.637Z,1017.97
2022-10-31T09:52:41.545Z,1017.94
2022-10-31T09:53:41.550Z,1018.07
2022-10-31T09:54:41.553Z,1018.12
2022-10-31T09:55:41.554Z,1018.11
2022-10-31T09:56:41.558Z,1018.14
2022-10-31T09:57:41.564Z,1018.14
2022-10-31T09:58:41.568Z,1018.20
2022-10-31T09:59:41.569Z,1018.22
2022-10-31T10:00:41.602Z,1018.23
2022-10-31T10:01:41.858Z,1018.28
2022-10-31T10:02:41.578Z,1018.28
2022-10-31T10:03:41.588Z,1018.23
2022-10-31T10:04:41.596Z,1018.30
2022-10-31T10:05:41.594Z,1018.32
2022-10-31T10:06:41.619Z,1018.34
2022-10-31T10:07:41.646Z,1018.22
2022-10-31T10:08:41.597Z,1018.16
2022-10-31T10:09:41.604Z,1018.04
2022-10-31T10:10:41.612Z,1017.99
2022-10-31T10:11:41.611Z,1017.96
2022-10-31T10:12:41.615Z,1017.84
2022-10-31T10:13:41.616Z,1017.83
2022-10-31T10:14:41.630Z,1017.77
2022-10-31T10:15:41.646Z,1017.68
2022-10-31T10:16:41.634Z,1017.70
2022-10-31T10:17:41.641Z,1017.67
2022-10-31T10:18:41.645Z,1017.66
2022-10-31T10:19:41.657Z,1017.70
2022-10-31T10:20:41.681Z,1017.70
2022-10-31T10:21:41.674Z,1017.73
2022-10-31T10:22:41.668Z,1017.92
2022-10-31T10:23:41.690Z,1017.92
2022-10-31T10:24:41.681Z,1017.73
2022-10-31T10:25:41.684Z,1017.69
2022-10-31T10:26:41.800Z,1017.71
2022-10-31T10:27:41.687Z,1017.66
2022-10-31T10:28:41.694Z,1017.62
2022-10-31T10:29:41.700Z,1017.60
2022-10-31T10:30:41.704Z,1017.60
2022-10-31T10:31:41.710Z,1017.63
2022-10-31T10:32:41.709Z,1017.61
2022-10-31T10:33:41.715Z,1017.64
2022-10-31T10:34:41.740Z,1017.84
2022-10-31T10:35:41.727Z,1017.90
2022-10-31T10:36:41.729Z,1018.31
2022-10-31T10:37:41.741Z,1018.44
2022-10-31T10:38:41.741Z,1018.25
2022-10-31T10:39:41.770Z,1018.33
2022-10-31T10:40:41.745Z,1018.40
2022-10-31T10:41:41.756Z,1018.30
2022-10-31T10:42:41.770Z,1018.30
2022-10-31T10:43:41.843Z,1018.25
2022-10-31T10:44:41.795Z,1018.03
2022-10-31T10:45:41.790Z,1017.65
2022-10-31T10:46:41.801Z,1017.68
2022-10-31T10:47:41.870Z,1017.67
2022-10-31T10:48:41.812Z,1017.73
2022-10-31T10:49:41.808Z,1017.76
2022-10-31T10:50:41.812Z,1017.66
2022-10-31T10:52:47.530Z,1017.57
2022-10-31T10:53:41.823Z,1017.72
2022-10-31T10:54:41.834Z,1017.94
2022-10-31T10:55:41.865Z,1018.18
2022-10-31T10:56:41.845Z,1017.61
2022-10-31T10:57:41.855Z,1017.66
2022-10-31T10:58:41.860Z,1017.60
2022-10-31T10:59:41.865Z,1017.53
2022-10-31T11:00:41.988Z,1017.55
2022-10-31T11:01:41.884Z,1017.53
2022-10-31T11:02:43.855Z,1017.54
2022-10-31T11:03:41.894Z,1017.47
2022-10-31T11:04:41.910Z,1017.44
2022-10-31T11:05:41.926Z,1017.48
2022-10-31T11:06:41.915Z,1017.49
2022-10-31T11:07:41.925Z,1017.46
2022-10-31T11:08:41.920Z,1017.53
2022-10-31T11:09:41.931Z,1017.51
2022-10-31T11:10:41.948Z,1017.46
2022-10-31T11:11:41.973Z,1017.54
2022-10-31T11:12:41.957Z,1017.52
2022-10-31T11:13:41.958Z,1017.52
2022-10-31T11:14:41.976Z,1017.50
2022-10-31T11:15:41.971Z,1017.50
2022-10-31T11:16:41.985Z,1017.46
2022-10-31T11:17:41.988Z,1017.53
2022-10-31T11:18:41.994Z,1017.50
2022-10-31T11:19:41.998Z,1017.53
2022-10-31T11:20:42.026Z,1017.61
2022-10-31T11:21:42.015Z,1017.68
2022-10-31T11:22:42.017Z,1017.57
2022-10-31T11:23:42.020Z,1017.51
2022-10-31T11:24:42.041Z,1017.51
2022-10-31T11:25:42.039Z,1017.55
2022-10-31T11:26:42.036Z,1017.55
2022-10-31T11:27:42.067Z,1017.69
2022-10-31T11:28:42.052Z,1017.80
2022-10-31T11:29:42.053Z,1017.86
2022-10-31T11:30:42.061Z,1017.84
2022-10-31T11:31:42.072Z,1017.89
2022-10-31T11:32:42.078Z,1017.98
2022-10-31T11:33:42.080Z,1017.96
2022-10-31T11:34:42.098Z,1017.96
2022-10-31T11:35:42.101Z,1017.91
2022-10-31T11:36:42.149Z,1017.96
2022-10-31T11:37:42.107Z,1017.99
2022-10-31T11:38:42.118Z,1017.92
2022-10-31T11:39:42.122Z,1017.87
2022-10-31T11:40:42.132Z,1017.84
2022-10-31T11:41:42.144Z,1017.88
2022-10-31T11:42:42.153Z,1017.89
2022-10-31T11:43:42.181Z,1017.66
2022-10-31T11:44:42.167Z,1017.78
2022-10-31T11:45:42.171Z,1017.80
2022-10-31T11:46:42.193Z,1017.85
2022-10-31T11:47:42.199Z,1017.84
2022-10-31T11:48:42.206Z,1017.87
2022-10-31T11:49:42.209Z,1017.84
2022-10-31T11:50:42.222Z,1017.88
2022-10-31T11:51:42.232Z,1017.81
2022-10-31T11:52:42.343Z,1017.84
2022-10-31T11:53:42.254Z,1017.82
2022-10-31T11:54:42.262Z,1017.84
2022-10-31T11:55:42.275Z,1017.79
2022-10-31T11:56:42.287Z,1017.73
2022-10-31T11:57:42.298Z,1017.57
2022-10-31T11:58:42.309Z,1017.50
2022-10-31T11:59:42.329Z,1017.43
2022-10-31T12:00:45.758Z,1017.37
2022-10-31T12:01:44.999Z,1017.37
2022-10-31T12:02:42.503Z,1017.36
2022-10-31T12:03:42.359Z,1017.36
2022-10-31T12:04:42.409Z,1017.32
2022-10-31T12:05:42.391Z,1017.30
2022-10-31T12:06:42.395Z,1017.27